Terminal Aerodrome Forecast
Issued by NWS

Home | Current Version | Previous Version | Text Only | Print | Product List | Glossary On
Versions: 1 2 3 4 5 6 7 8 9 10 11 12
000
FTUS45 KRIW 251700
TAFJAC
TAF
KJAC 251723Z 2518/2618 22011KT P6SM SKC
     FM252100 23016G24KT P6SM FEW100
     FM260130 19009KT P6SM SKC
     FM260600 VRB05KT P6SM SKC
      AMD LTD TO CLD VIS AND WIND=

USA.gov is the U.S. government's official web portal to all federal, state and local government web resources and services.